LHBP/BUD METAR and TAF weather

Enter ICAO airport designator
Station Type Date Time Source
LHBP METAR 2021/07/24 21:30 UTC NOAA

LHBP 242130Z 09004KT CAVOK 20/14 Q1014 NOSIG


Station Type Date Time Source
LHBP Decoded METAR 2021/07/24 21:30 UTC NOAA

Budapest / Ferihegy, Hungary (LHBP) 47-26N 019-16E 185M
Jul 24, 2021 - 05:30 PM EDT / 2021.07.24 2130 UTC
Wind: from the E (090 degrees) at 5 MPH (4 KT):0
Visibility: greater than 7 mile(s):0
Temperature: 68 F (20 C)
Dew Point: 57 F (14 C)
Relative Humidity: 68%
Pressure (altimeter): 29.94 in. Hg (1014 hPa)
ob: LHBP 242130Z 09004KT CAVOK 20/14 Q1014 NOSIG
cycle: 21

Station Type Date Time Source
LHBP TAF 2021/07/24 18:27 UTC NOAA

TAF TAF LHBP 241715Z 2418/2518 VRB03KT CAVOK
BECMG 2506/2510 14012KT
BECMG 2515/2518 13006KT

Example: see airport list